createdAt,value
2023-04-10T00:00:57.894Z,28.50
2023-04-10T00:03:25.586Z,27.30
2023-04-10T00:05:54.581Z,28.63
2023-04-10T00:08:24.146Z,27.58
2023-04-10T00:10:51.134Z,26.90
2023-04-10T00:13:17.885Z,28.40
2023-04-10T00:15:44.831Z,27.60
2023-04-10T00:18:12.343Z,26.48
2023-04-10T00:20:39.239Z,27.77
2023-04-10T00:23:06.542Z,27.77
2023-04-10T00:25:33.356Z,26.48
2023-04-10T00:28:00.471Z,26.35
2023-04-10T00:30:27.475Z,26.67
2023-04-10T00:32:54.294Z,24.95
2023-04-10T00:35:21.192Z,24.75
2023-04-10T00:37:50.090Z,22.02
2023-04-10T00:40:16.919Z,20.83
2023-04-10T00:42:43.745Z,18.63
2023-04-10T00:45:11.537Z,18.48
2023-04-10T00:47:38.462Z,17.23
2023-04-10T00:50:06.488Z,16.25
2023-04-10T00:52:33.530Z,17.73
2023-04-10T00:55:00.760Z,19.10
2023-04-10T00:57:28.460Z,19.25
2023-04-10T00:59:55.704Z,21.00
2023-04-10T01:02:22.609Z,20.77
2023-04-10T01:04:51.011Z,20.33
2023-04-10T01:07:41.006Z,23.67
2023-04-10T01:10:25.637Z,20.83
2023-04-10T01:13:08.141Z,19.92
2023-04-10T01:15:53.352Z,19.23
2023-04-10T01:18:31.247Z,19.42
2023-04-10T01:21:02.336Z,19.13
2023-04-10T01:23:42.185Z,18.98
2023-04-10T01:26:11.770Z,18.70
2023-04-10T01:28:51.118Z,19.10
2023-04-10T01:31:27.139Z,18.92
2023-04-10T01:34:04.805Z,18.90
2023-04-10T01:36:40.450Z,17.77
2023-04-10T01:39:09.441Z,15.77
2023-04-10T01:41:38.199Z,15.40
2023-04-10T01:44:07.379Z,16.08
2023-04-10T01:46:37.305Z,16.20
2023-04-10T01:49:05.211Z,19.20
2023-04-10T01:51:34.256Z,21.05
2023-04-10T01:54:07.126Z,18.58
2023-04-10T01:56:34.597Z,19.08
2023-04-10T02:01:30.757Z,18.65
2023-04-10T02:03:59.619Z,18.83
2023-04-10T02:06:53.922Z,19.48
2023-04-10T02:09:28.166Z,19.90
2023-04-10T02:12:04.232Z,20.30
2023-04-10T02:14:33.931Z,21.02
2023-04-10T02:17:02.672Z,20.17
2023-04-10T02:19:32.006Z,22.05
2023-04-10T02:21:59.194Z,21.38
2023-04-10T02:24:26.844Z,22.13
2023-04-10T02:26:53.736Z,22.00
2023-04-10T02:29:20.521Z,20.70
2023-04-10T02:31:48.788Z,20.17
2023-04-10T02:34:16.056Z,20.55
2023-04-10T02:36:42.978Z,18.73
2023-04-10T02:39:11.966Z,18.50
2023-04-10T02:41:47.427Z,17.88
2023-04-10T02:44:14.772Z,18.02
2023-04-10T02:46:42.755Z,18.67
2023-04-10T02:49:11.060Z,19.40
2023-04-10T02:51:38.263Z,19.10
2023-04-10T02:54:05.355Z,19.00
2023-04-10T02:56:34.870Z,20.08
2023-04-10T02:59:02.110Z,19.45
2023-04-10T03:01:30.008Z,20.10
2023-04-10T03:03:58.169Z,20.35
2023-04-10T03:06:29.066Z,20.88
2023-04-10T03:08:57.665Z,19.67
2023-04-10T03:11:24.442Z,19.92
2023-04-10T03:13:51.449Z,21.55
2023-04-10T03:16:18.921Z,22.52
2023-04-10T03:21:13.333Z,20.13
2023-04-10T03:23:40.278Z,24.77
2023-04-10T03:26:07.212Z,27.23
2023-04-10T03:28:37.894Z,25.67
2023-04-10T03:31:05.755Z,24.75
2023-04-10T03:33:35.548Z,24.55
2023-04-10T03:36:03.781Z,26.65
2023-04-10T03:38:30.660Z,27.77
2023-04-10T03:40:57.492Z,27.95
2023-04-10T03:43:26.826Z,27.23
2023-04-10T03:45:53.640Z,28.73
2023-04-10T03:48:21.383Z,27.65
2023-04-10T03:50:48.291Z,27.52
2023-04-10T03:53:17.140Z,28.38
2023-04-10T03:55:44.918Z,29.52
2023-04-10T03:58:13.076Z,31.65
2023-04-10T04:00:40.330Z,32.30
2023-04-10T04:03:29.110Z,35.15
2023-04-10T04:05:59.102Z,34.85
2023-04-10T04:08:36.134Z,31.33
2023-04-10T04:11:21.955Z,34.05
2023-04-10T04:14:14.700Z,34.08
2023-04-10T04:17:18.403Z,34.67
2023-04-10T04:20:20.747Z,34.78
2023-04-10T04:23:13.225Z,35.88
2023-04-10T04:26:02.940Z,35.83
2023-04-10T04:29:05.073Z,35.67
2023-04-10T04:32:01.446Z,37.33
2023-04-10T04:34:51.130Z,37.88
2023-04-10T04:37:20.695Z,38.38
2023-04-10T04:40:08.222Z,34.22
2023-04-10T04:42:55.382Z,35.55
2023-04-10T04:45:40.796Z,36.97
2023-04-10T04:48:13.303Z,34.58
2023-04-10T04:50:51.814Z,34.85
2023-04-10T04:53:41.406Z,34.60
2023-04-10T04:56:26.689Z,36.30
2023-04-10T04:59:28.578Z,34.47
2023-04-10T05:02:14.591Z,35.42
2023-04-10T05:05:01.711Z,33.38
2023-04-10T05:07:51.404Z,32.90
2023-04-10T05:10:38.166Z,32.75
2023-04-10T05:13:20.803Z,34.15
2023-04-10T05:15:56.823Z,33.08
2023-04-10T05:18:41.812Z,32.15
2023-04-10T05:21:36.378Z,33.03
2023-04-10T05:24:22.073Z,33.95
2023-04-10T05:27:07.590Z,34.75
2023-04-10T05:29:52.961Z,33.83
2023-04-10T05:32:49.917Z,32.50
2023-04-10T05:35:42.918Z,34.47
2023-04-10T05:38:38.758Z,31.55
2023-04-10T05:41:25.706Z,32.05
2023-04-10T05:44:15.335Z,31.67
2023-04-10T05:46:57.247Z,29.80
2023-04-10T05:49:39.323Z,28.75
2023-04-10T05:52:08.842Z,28.42
2023-04-10T05:54:56.605Z,27.52
2023-04-10T05:57:42.248Z,26.83
2023-04-10T06:00:21.815Z,26.60
2023-04-10T06:03:07.673Z,25.65
2023-04-10T06:05:46.414Z,24.98
2023-04-10T06:10:42.148Z,24.90
2023-04-10T06:13:11.732Z,23.65
2023-04-10T06:15:39.452Z,23.75
2023-04-10T06:18:08.608Z,23.50
2023-04-10T06:20:40.476Z,23.23
2023-04-10T06:23:16.241Z,23.25
2023-04-10T06:25:44.297Z,23.10
2023-04-10T06:28:14.382Z,23.70
2023-04-10T06:30:44.731Z,22.52
2023-04-10T06:33:12.117Z,23.90
2023-04-10T06:35:43.660Z,23.42
2023-04-10T06:38:13.040Z,23.70
2023-04-10T06:40:41.577Z,23.63
2023-04-10T06:43:11.861Z,23.60
2023-04-10T06:45:39.798Z,22.70
2023-04-10T06:48:09.931Z,23.30
2023-04-10T06:50:37.336Z,23.77
2023-04-10T06:53:04.960Z,21.95
2023-04-10T06:55:32.592Z,22.85
2023-04-10T06:57:59.686Z,23.80
2023-04-10T07:00:26.993Z,25.10
2023-04-10T07:02:54.749Z,24.88
2023-04-10T07:05:22.449Z,25.45
2023-04-10T07:07:52.330Z,24.17
2023-04-10T07:10:19.539Z,26.05
2023-04-10T07:12:46.591Z,26.75
2023-04-10T07:15:14.220Z,26.67
2023-04-10T07:17:41.509Z,26.65
2023-04-10T07:20:09.456Z,26.95
2023-04-10T07:22:36.513Z,27.90
2023-04-10T07:25:03.878Z,28.23
2023-04-10T07:27:30.891Z,29.15
2023-04-10T07:29:58.393Z,28.60
2023-04-10T07:32:26.903Z,27.30
2023-04-10T07:34:54.813Z,27.23
2023-04-10T07:37:22.873Z,28.45
2023-04-10T07:39:49.892Z,28.17
2023-04-10T07:42:16.852Z,28.30
2023-04-10T07:44:43.959Z,28.63
2023-04-10T07:47:11.593Z,27.97
2023-04-10T07:49:38.716Z,28.45
2023-04-10T07:52:05.861Z,28.90
2023-04-10T07:54:34.281Z,28.77
2023-04-10T07:57:01.378Z,28.58
2023-04-10T07:59:29.022Z,29.73
2023-04-10T08:01:56.227Z,30.52
2023-04-10T08:04:23.515Z,31.90
2023-04-10T08:06:50.911Z,30.23
2023-04-10T08:09:18.066Z,32.00
2023-04-10T08:11:45.417Z,31.48
2023-04-10T08:14:13.490Z,30.40
2023-04-10T08:16:45.932Z,30.33
2023-04-10T08:19:13.166Z,32.72
2023-04-10T08:21:40.200Z,30.15
2023-04-10T08:24:07.545Z,29.80
2023-04-10T08:26:34.753Z,30.05
2023-04-10T08:29:02.161Z,29.45
2023-04-10T08:31:29.630Z,29.87
2023-04-10T08:33:57.405Z,29.13
2023-04-10T08:36:24.706Z,30.25
2023-04-10T08:38:51.646Z,28.55
2023-04-10T08:41:19.942Z,28.38
2023-04-10T08:43:47.397Z,27.83
2023-04-10T08:46:15.172Z,28.05
2023-04-10T08:48:45.273Z,27.98
2023-04-10T08:51:20.327Z,32.47
2023-04-10T08:53:52.341Z,29.20
2023-04-10T08:56:20.650Z,27.67
2023-04-10T08:58:49.789Z,26.05
2023-04-10T09:01:17.750Z,24.10
2023-04-10T09:06:14.948Z,22.15
2023-04-10T09:08:41.989Z,21.95
2023-04-10T09:11:09.174Z,22.70
2023-04-10T09:13:44.105Z,19.98
2023-04-10T09:16:15.014Z,21.45
2023-04-10T09:18:51.378Z,19.88
2023-04-10T09:21:22.133Z,20.75
2023-04-10T09:23:49.708Z,19.45
2023-04-10T09:26:33.616Z,19.63
2023-04-10T09:29:02.143Z,18.23
2023-04-10T09:31:37.040Z,17.30
2023-04-10T09:34:24.177Z,18.58
2023-04-10T09:37:00.021Z,17.45
2023-04-10T09:39:43.119Z,16.15
2023-04-10T09:42:14.895Z,15.75
2023-04-10T09:44:42.472Z,15.65
2023-04-10T09:47:20.171Z,14.55
2023-04-10T09:49:49.043Z,14.68
2023-04-10T09:52:20.012Z,14.18
2023-04-10T09:54:47.433Z,13.45
2023-04-10T09:57:21.939Z,12.88
2023-04-10T10:00:00.109Z,13.25
2023-04-10T10:02:30.073Z,11.15
2023-04-10T10:05:02.203Z,11.45
2023-04-10T10:07:31.242Z,12.43
2023-04-10T10:09:59.216Z,11.13
2023-04-10T10:12:46.000Z,12.10
2023-04-10T10:15:38.883Z,11.30
2023-04-10T10:18:32.750Z,10.05
2023-04-10T10:21:01.061Z,9.55
2023-04-10T10:28:25.563Z,10.55
2023-04-10T10:30:53.428Z,10.35
2023-04-10T10:33:20.627Z,10.73
2023-04-10T10:35:47.996Z,12.47
2023-04-10T10:38:16.002Z,13.63
2023-04-10T10:41:13.261Z,11.90
2023-04-10T10:43:52.523Z,13.30
2023-04-10T10:46:59.469Z,13.32
2023-04-10T10:49:51.327Z,11.63
2023-04-10T10:52:42.095Z,12.32
2023-04-10T10:55:39.469Z,12.90
2023-04-10T10:58:07.769Z,12.15
2023-04-10T11:00:54.915Z,12.43
2023-04-10T11:03:22.683Z,13.18
2023-04-10T11:06:02.385Z,12.93
2023-04-10T11:08:49.135Z,12.20
2023-04-10T11:11:24.165Z,13.07
2023-04-10T11:13:56.433Z,13.52
2023-04-10T11:16:42.062Z,13.70
2023-04-10T11:19:15.874Z,12.70
2023-04-10T11:22:04.831Z,12.55
2023-04-10T11:24:54.663Z,11.57
2023-04-10T11:27:46.309Z,10.95
2023-04-10T11:30:32.253Z,12.02
2023-04-10T11:33:01.335Z,10.50
2023-04-10T11:35:29.069Z,10.88
2023-04-10T11:38:28.705Z,10.68
2023-04-10T11:40:58.064Z,11.60
2023-04-10T11:43:25.594Z,10.40
2023-04-10T11:46:00.707Z,9.98
2023-04-10T11:48:29.605Z,9.35
2023-04-10T11:50:56.878Z,9.88
2023-04-10T11:53:24.915Z,9.48
2023-04-10T11:55:52.056Z,9.27
2023-04-10T11:58:30.695Z,9.18
2023-04-10T12:01:03.624Z,8.90
2023-04-10T12:03:42.425Z,8.68
2023-04-10T12:06:13.157Z,8.25
2023-04-10T12:08:42.568Z,9.13
2023-04-10T12:11:10.966Z,8.32
2023-04-10T12:13:38.962Z,7.63
2023-04-10T12:18:37.545Z,8.35
2023-04-10T12:21:06.798Z,7.93
2023-04-10T12:23:39.412Z,8.30
2023-04-10T12:26:18.507Z,7.50
2023-04-10T12:28:58.125Z,7.90
2023-04-10T12:31:30.759Z,7.20
2023-04-10T12:33:59.139Z,7.97
2023-04-10T12:36:30.862Z,7.65
2023-04-10T12:38:59.746Z,7.55
2023-04-10T12:41:31.318Z,7.30
2023-04-10T12:44:12.487Z,6.95
2023-04-10T12:46:40.971Z,7.20
2023-04-10T12:49:13.454Z,6.85
2023-04-10T12:51:44.093Z,7.50
2023-04-10T12:54:11.298Z,7.30
2023-04-10T12:56:43.091Z,7.35
2023-04-10T12:59:10.783Z,7.53
2023-04-10T13:04:06.724Z,6.53
2023-04-10T13:06:41.919Z,6.95
2023-04-10T13:09:08.953Z,6.43
2023-04-10T13:11:36.182Z,7.20
2023-04-10T13:14:03.139Z,6.85
2023-04-10T13:16:30.294Z,6.83
2023-04-10T13:18:57.277Z,7.05
2023-04-10T13:21:26.856Z,6.40
2023-04-10T13:23:56.606Z,6.97
2023-04-10T13:26:24.720Z,6.95
2023-04-10T13:28:53.923Z,7.68
2023-04-10T13:31:21.506Z,7.20
2023-04-10T13:33:48.693Z,7.90
2023-04-10T13:36:16.327Z,7.40
2023-04-10T13:38:43.499Z,7.72
2023-04-10T13:41:10.836Z,7.60
2023-04-10T13:43:37.863Z,7.47
2023-04-10T13:46:05.744Z,7.88
2023-04-10T13:48:40.210Z,7.97
2023-04-10T13:51:08.652Z,8.18
2023-04-10T13:53:35.928Z,8.57
2023-04-10T13:56:03.162Z,8.38
2023-04-10T13:58:32.049Z,8.23
2023-04-10T14:00:59.425Z,7.10
2023-04-10T14:03:26.863Z,7.27
2023-04-10T14:05:54.441Z,7.35
2023-04-10T14:08:21.581Z,7.63
2023-04-10T14:10:51.517Z,7.57
2023-04-10T14:13:19.212Z,7.63
2023-04-10T14:15:46.580Z,6.28
2023-04-10T14:18:17.415Z,6.90
2023-04-10T14:20:44.783Z,7.85
2023-04-10T14:23:18.122Z,6.72
2023-04-10T14:25:46.538Z,6.88
2023-04-10T14:28:17.707Z,6.60
2023-04-10T14:30:46.175Z,6.93
2023-04-10T14:33:13.343Z,6.32
2023-04-10T14:35:40.727Z,7.18
2023-04-10T14:38:07.940Z,6.50
2023-04-10T14:40:35.171Z,6.43
2023-04-10T14:43:02.210Z,6.55
2023-04-10T14:45:29.663Z,6.57
2023-04-10T14:47:56.854Z,6.15
2023-04-10T14:50:24.036Z,5.70
2023-04-10T14:52:54.233Z,5.77
2023-04-10T14:55:21.298Z,5.47
2023-04-10T14:57:48.945Z,5.83
2023-04-10T15:00:16.152Z,5.90
2023-04-10T15:02:43.238Z,5.88
2023-04-10T15:05:10.389Z,6.57
2023-04-10T15:07:37.362Z,6.40
2023-04-10T15:10:04.731Z,5.83
2023-04-10T15:12:32.145Z,5.70
2023-04-10T15:14:59.258Z,5.95
2023-04-10T15:17:26.416Z,5.78
2023-04-10T15:19:53.481Z,5.50
2023-04-10T15:22:20.751Z,5.15
2023-04-10T15:24:50.828Z,4.95
2023-04-10T15:27:21.458Z,5.00
2023-04-10T15:29:49.306Z,5.00
2023-04-10T15:34:45.092Z,5.47
2023-04-10T15:37:12.206Z,5.95
2023-04-10T15:39:39.371Z,6.07
2023-04-10T15:42:08.463Z,5.85
2023-04-10T15:44:35.741Z,5.93
2023-04-10T15:47:02.752Z,5.90
2023-04-10T15:49:37.925Z,6.60
2023-04-10T15:52:08.723Z,6.95
2023-04-10T15:54:36.060Z,6.05
2023-04-10T15:57:03.865Z,6.00
2023-04-10T15:59:33.429Z,6.45
2023-04-10T16:02:00.542Z,7.10
2023-04-10T16:04:27.932Z,6.17
2023-04-10T16:06:56.714Z,6.50
2023-04-10T16:09:26.403Z,5.78
2023-04-10T16:11:54.789Z,6.32
2023-04-10T16:14:22.698Z,5.80
2023-04-10T16:19:17.346Z,6.40
2023-04-10T16:21:44.489Z,6.05
2023-04-10T16:24:11.559Z,6.60
2023-04-10T16:26:38.517Z,6.85
2023-04-10T16:29:06.516Z,6.47
2023-04-10T16:34:01.347Z,5.72
2023-04-10T16:36:28.246Z,6.28
2023-04-10T16:38:55.484Z,5.72
2023-04-10T16:41:22.908Z,6.28
2023-04-10T16:43:52.720Z,5.80
2023-04-10T16:46:20.426Z,5.40
2023-04-10T16:48:47.434Z,5.40
2023-04-10T16:51:18.208Z,5.78
2023-04-10T16:53:45.355Z,5.43
2023-04-10T16:56:12.587Z,5.28
2023-04-10T16:58:42.032Z,5.50
2023-04-10T17:01:26.463Z,5.85
2023-04-10T17:03:55.197Z,5.68
2023-04-10T17:06:22.259Z,5.60
2023-04-10T17:08:49.266Z,5.55
2023-04-10T17:11:16.276Z,5.85
2023-04-10T17:13:43.454Z,5.70
2023-04-10T17:16:10.629Z,6.80
2023-04-10T17:18:37.749Z,7.70
2023-04-10T17:21:05.077Z,7.30
2023-04-10T17:23:32.175Z,6.68
2023-04-10T17:25:59.320Z,6.72
2023-04-10T17:28:26.280Z,6.60
2023-04-10T17:30:53.218Z,8.13
2023-04-10T17:33:21.889Z,6.35
2023-04-10T17:35:51.253Z,5.93
2023-04-10T17:38:18.552Z,6.13
2023-04-10T17:40:45.977Z,6.07
2023-04-10T17:43:13.226Z,5.90
2023-04-10T17:45:40.417Z,5.63
2023-04-10T17:48:10.717Z,6.07
2023-04-10T17:50:37.933Z,5.97
2023-04-10T17:53:05.078Z,5.60
2023-04-10T17:55:38.641Z,6.53
2023-04-10T17:58:05.924Z,5.78
2023-04-10T18:00:34.638Z,6.20
2023-04-10T18:03:01.878Z,7.20
2023-04-10T18:05:30.261Z,9.65
2023-04-10T18:07:57.776Z,7.32
2023-04-10T18:10:24.824Z,8.13
2023-04-10T18:12:51.993Z,8.40
2023-04-10T18:15:19.017Z,7.47
2023-04-10T18:17:46.061Z,7.50
2023-04-10T18:20:13.207Z,7.60
2023-04-10T18:22:40.222Z,6.78
2023-04-10T18:25:07.993Z,6.97
2023-04-10T18:27:35.961Z,7.05
2023-04-10T18:30:03.252Z,6.68
2023-04-10T18:32:30.307Z,6.70
2023-04-10T18:34:57.487Z,7.00
2023-04-10T18:37:24.637Z,7.15
2023-04-10T18:39:51.871Z,6.95
2023-04-10T18:42:18.964Z,7.15
2023-04-10T18:44:46.012Z,7.07
2023-04-10T18:47:13.182Z,7.55
2023-04-10T18:49:40.252Z,7.78
2023-04-10T18:52:07.642Z,7.35
2023-04-10T18:54:35.514Z,7.25
2023-04-10T18:57:02.741Z,7.18
2023-04-10T18:59:32.124Z,7.18
2023-04-10T19:01:59.843Z,7.07
2023-04-10T19:04:27.068Z,7.22
2023-04-10T19:06:54.092Z,7.07
2023-04-10T19:09:21.150Z,6.70
2023-04-10T19:11:48.070Z,7.68
2023-04-10T19:14:15.015Z,6.78
2023-04-10T19:16:41.932Z,6.00
2023-04-10T19:19:08.803Z,6.22
2023-04-10T19:21:35.645Z,6.10
2023-04-10T19:24:02.580Z,5.78
2023-04-10T19:26:29.479Z,5.40
2023-04-10T19:28:56.519Z,6.22
2023-04-10T19:31:27.346Z,5.15
2023-04-10T19:33:54.427Z,5.72
2023-04-10T19:36:21.360Z,5.72
2023-04-10T19:38:50.998Z,5.53
2023-04-10T19:41:18.295Z,5.60
2023-04-10T19:43:45.181Z,5.25
2023-04-10T19:46:19.420Z,5.60
2023-04-10T19:48:46.612Z,5.03
2023-04-10T19:51:13.695Z,5.57
2023-04-10T19:53:42.004Z,5.32
2023-04-10T19:58:40.535Z,6.00
2023-04-10T20:01:08.850Z,5.43
2023-04-10T20:03:36.771Z,5.80
2023-04-10T20:06:07.208Z,5.68
2023-04-10T20:08:34.642Z,5.60
2023-04-10T20:11:05.980Z,5.32
2023-04-10T20:13:34.384Z,5.93
2023-04-10T20:19:53.736Z,5.45
2023-04-10T20:22:21.007Z,5.93
2023-04-10T20:24:47.736Z,6.03
2023-04-10T20:27:18.489Z,5.70
2023-04-10T20:29:45.323Z,6.32
2023-04-10T20:32:12.105Z,5.30
2023-04-10T20:34:39.134Z,5.35
2023-04-10T20:37:05.954Z,5.07
2023-04-10T20:39:33.492Z,5.18
2023-04-10T20:42:00.339Z,5.50
2023-04-10T20:44:27.179Z,5.25
2023-04-10T20:46:54.064Z,5.13
2023-04-10T20:49:21.033Z,5.38
2023-04-10T20:51:48.075Z,5.22
2023-04-10T20:54:14.893Z,4.88
2023-04-10T20:56:43.668Z,5.13
2023-04-10T20:59:11.492Z,5.32
2023-04-10T21:01:38.828Z,5.65
2023-04-10T21:04:05.847Z,5.28
2023-04-10T21:06:33.528Z,5.57
2023-04-10T21:09:00.662Z,5.72
2023-04-10T21:11:27.668Z,5.72
2023-04-10T21:13:54.769Z,5.20
2023-04-10T21:16:21.648Z,5.80
2023-04-10T21:18:48.655Z,5.22
2023-04-10T21:21:16.002Z,5.45
2023-04-10T21:23:42.813Z,5.57
2023-04-10T21:26:10.077Z,5.22
2023-04-10T21:28:36.975Z,5.63
2023-04-10T21:31:04.379Z,5.28
2023-04-10T21:33:32.616Z,5.30
2023-04-10T21:38:26.300Z,5.35
2023-04-10T21:40:54.306Z,5.57
2023-04-10T21:43:22.077Z,5.90
2023-04-10T21:45:51.868Z,5.47
2023-04-10T21:48:20.542Z,5.35
2023-04-10T21:50:47.779Z,5.80
2023-04-10T21:53:15.385Z,5.88
2023-04-10T21:55:42.287Z,5.57
2023-04-10T21:58:09.049Z,6.10
2023-04-10T22:00:35.908Z,5.93
2023-04-10T22:03:02.850Z,5.75
2023-04-10T22:05:29.863Z,5.90
2023-04-10T22:07:56.625Z,5.47
2023-04-10T22:10:23.540Z,5.82
2023-04-10T22:12:50.317Z,6.45
2023-04-10T22:15:17.651Z,5.72
2023-04-10T22:17:44.949Z,5.47
2023-04-10T22:20:11.909Z,5.87
2023-04-10T22:22:38.757Z,5.70
2023-04-10T22:25:06.018Z,5.80
2023-04-10T22:27:33.140Z,5.80
2023-04-10T22:30:03.696Z,6.03
2023-04-10T22:32:31.579Z,6.20
2023-04-10T22:34:59.715Z,5.90
2023-04-10T22:39:55.822Z,6.20
2023-04-10T22:42:22.699Z,6.57
2023-04-10T22:44:49.474Z,6.22
2023-04-10T22:47:16.277Z,5.97
2023-04-10T22:49:43.303Z,6.18
2023-04-10T22:52:11.667Z,5.80
2023-04-10T22:54:38.641Z,6.10
2023-04-10T22:57:05.941Z,6.40
2023-04-10T22:59:32.830Z,5.93
2023-04-10T23:01:59.803Z,6.82
2023-04-10T23:04:26.826Z,5.97
2023-04-10T23:06:53.651Z,6.15
2023-04-10T23:09:20.734Z,6.50
2023-04-10T23:11:47.731Z,6.05
2023-04-10T23:14:14.618Z,6.68
2023-04-10T23:16:41.582Z,6.13
2023-04-10T23:19:08.416Z,5.97
2023-04-10T23:21:35.443Z,5.88
2023-04-10T23:24:02.263Z,6.07
2023-04-10T23:26:32.207Z,6.68
2023-04-10T23:28:59.257Z,6.45
2023-04-10T23:31:26.114Z,5.88
2023-04-10T23:33:52.960Z,6.25
2023-04-10T23:36:19.765Z,6.28
2023-04-10T23:38:46.467Z,6.03
2023-04-10T23:41:13.480Z,6.60
2023-04-10T23:43:40.350Z,6.13
2023-04-10T23:46:07.441Z,6.32
2023-04-10T23:48:34.222Z,6.68
2023-04-10T23:51:08.780Z,6.10
2023-04-10T23:53:35.967Z,6.28
2023-04-10T23:56:02.756Z,5.93
2023-04-10T23:58:29.636Z,5.88
